sensor_id;sensor_type;location;lat;lon;timestamp;P1;durP1;ratioP1;P2;durP2;ratioP2
6259;SDS011;3163;51.516;4.000;2022-08-19T00:00:15;3.22;;;2.92;;
6259;SDS011;3163;51.516;4.000;2022-08-19T00:02:41;2.08;;;1.90;;
6259;SDS011;3163;51.516;4.000;2022-08-19T00:05:08;3.53;;;2.38;;
6259;SDS011;3163;51.516;4.000;2022-08-19T00:07:34;3.65;;;3.25;;
6259;SDS011;3163;51.516;4.000;2022-08-19T00:10:00;2.03;;;1.92;;
6259;SDS011;3163;51.516;4.000;2022-08-19T00:12:26;5.22;;;2.70;;
6259;SDS011;3163;51.516;4.000;2022-08-19T00:14:52;4.53;;;3.15;;
6259;SDS011;3163;51.516;4.000;2022-08-19T00:17:19;2.22;;;2.03;;
6259;SDS011;3163;51.516;4.000;2022-08-19T00:19:45;2.20;;;2.10;;
6259;SDS011;3163;51.516;4.000;2022-08-19T00:22:11;3.85;;;3.42;;
6259;SDS011;3163;51.516;4.000;2022-08-19T00:24:37;2.67;;;2.45;;
6259;SDS011;3163;51.516;4.000;2022-08-19T00:27:03;4.75;;;3.92;;
6259;SDS011;3163;51.516;4.000;2022-08-19T00:29:29;6.18;;;4.93;;
6259;SDS011;3163;51.516;4.000;2022-08-19T00:31:56;3.42;;;3.13;;
6259;SDS011;3163;51.516;4.000;2022-08-19T00:34:23;3.60;;;3.08;;
6259;SDS011;3163;51.516;4.000;2022-08-19T00:36:52;2.90;;;2.60;;
6259;SDS011;3163;51.516;4.000;2022-08-19T00:39:19;4.20;;;3.30;;
6259;SDS011;3163;51.516;4.000;2022-08-19T00:41:45;1.90;;;1.77;;
6259;SDS011;3163;51.516;4.000;2022-08-19T00:44:15;1.80;;;1.70;;
6259;SDS011;3163;51.516;4.000;2022-08-19T00:46:44;2.40;;;2.17;;
6259;SDS011;3163;51.516;4.000;2022-08-19T00:49:14;2.22;;;2.03;;
6259;SDS011;3163;51.516;4.000;2022-08-19T00:51:40;2.65;;;2.45;;
6259;SDS011;3163;51.516;4.000;2022-08-19T00:54:07;5.90;;;4.68;;
6259;SDS011;3163;51.516;4.000;2022-08-19T00:56:34;3.55;;;3.25;;
6259;SDS011;3163;51.516;4.000;2022-08-19T00:59:01;2.00;;;1.90;;
6259;SDS011;3163;51.516;4.000;2022-08-19T01:01:27;2.08;;;1.88;;
6259;SDS011;3163;51.516;4.000;2022-08-19T01:03:53;5.50;;;2.88;;
6259;SDS011;3163;51.516;4.000;2022-08-19T01:06:19;5.50;;;3.65;;
6259;SDS011;3163;51.516;4.000;2022-08-19T01:08:45;4.97;;;3.72;;
6259;SDS011;3163;51.516;4.000;2022-08-19T01:11:11;4.88;;;4.03;;
6259;SDS011;3163;51.516;4.000;2022-08-19T01:13:37;4.72;;;4.18;;
6259;SDS011;3163;51.516;4.000;2022-08-19T01:16:05;5.95;;;3.83;;
6259;SDS011;3163;51.516;4.000;2022-08-19T01:18:32;2.70;;;2.50;;
6259;SDS011;3163;51.516;4.000;2022-08-19T01:21:02;3.67;;;3.22;;
6259;SDS011;3163;51.516;4.000;2022-08-19T01:23:31;3.25;;;2.70;;
6259;SDS011;3163;51.516;4.000;2022-08-19T01:26:11;4.85;;;2.25;;
6259;SDS011;3163;51.516;4.000;2022-08-19T01:28:38;3.45;;;2.28;;
6259;SDS011;3163;51.516;4.000;2022-08-19T01:31:04;2.90;;;2.70;;
6259;SDS011;3163;51.516;4.000;2022-08-19T01:33:31;3.53;;;2.78;;
6259;SDS011;3163;51.516;4.000;2022-08-19T01:36:07;2.45;;;2.25;;
6259;SDS011;3163;51.516;4.000;2022-08-19T01:38:34;3.35;;;3.03;;
6259;SDS011;3163;51.516;4.000;2022-08-19T01:41:01;3.65;;;3.35;;
6259;SDS011;3163;51.516;4.000;2022-08-19T01:43:27;2.55;;;2.35;;
6259;SDS011;3163;51.516;4.000;2022-08-19T01:45:53;4.22;;;2.60;;
6259;SDS011;3163;51.516;4.000;2022-08-19T01:48:19;2.50;;;2.30;;
6259;SDS011;3163;51.516;4.000;2022-08-19T01:50:45;2.75;;;2.50;;
6259;SDS011;3163;51.516;4.000;2022-08-19T01:53:13;5.03;;;2.67;;
6259;SDS011;3163;51.516;4.000;2022-08-19T01:55:39;3.42;;;3.13;;
6259;SDS011;3163;51.516;4.000;2022-08-19T01:58:06;4.20;;;3.30;;
6259;SDS011;3163;51.516;4.000;2022-08-19T02:00:33;2.47;;;2.28;;
6259;SDS011;3163;51.516;4.000;2022-08-19T02:02:59;3.10;;;2.88;;
6259;SDS011;3163;51.516;4.000;2022-08-19T02:05:25;3.53;;;3.00;;
6259;SDS011;3163;51.516;4.000;2022-08-19T02:07:54;2.30;;;2.17;;
6259;SDS011;3163;51.516;4.000;2022-08-19T02:10:21;2.88;;;2.63;;
6259;SDS011;3163;51.516;4.000;2022-08-19T02:12:47;2.15;;;1.95;;
6259;SDS011;3163;51.516;4.000;2022-08-19T02:15:14;2.40;;;2.20;;
6259;SDS011;3163;51.516;4.000;2022-08-19T02:17:40;2.72;;;2.53;;
6259;SDS011;3163;51.516;4.000;2022-08-19T02:20:07;2.63;;;2.42;;
6259;SDS011;3163;51.516;4.000;2022-08-19T02:22:33;2.38;;;2.17;;
6259;SDS011;3163;51.516;4.000;2022-08-19T02:25:00;2.20;;;2.10;;
6259;SDS011;3163;51.516;4.000;2022-08-19T02:27:26;2.40;;;2.13;;
6259;SDS011;3163;51.516;4.000;2022-08-19T02:29:52;3.45;;;2.97;;
6259;SDS011;3163;51.516;4.000;2022-08-19T02:32:18;3.55;;;2.58;;
6259;SDS011;3163;51.516;4.000;2022-08-19T02:34:45;3.40;;;2.95;;
6259;SDS011;3163;51.516;4.000;2022-08-19T02:37:11;6.13;;;5.50;;
6259;SDS011;3163;51.516;4.000;2022-08-19T02:39:56;3.20;;;2.90;;
6259;SDS011;3163;51.516;4.000;2022-08-19T02:42:22;3.35;;;3.05;;
6259;SDS011;3163;51.516;4.000;2022-08-19T02:44:48;3.85;;;3.28;;
6259;SDS011;3163;51.516;4.000;2022-08-19T02:47:14;3.15;;;2.90;;
6259;SDS011;3163;51.516;4.000;2022-08-19T02:49:40;3.10;;;2.90;;
6259;SDS011;3163;51.516;4.000;2022-08-19T02:52:06;3.08;;;2.50;;
6259;SDS011;3163;51.516;4.000;2022-08-19T02:54:32;4.05;;;2.45;;
6259;SDS011;3163;51.516;4.000;2022-08-19T02:56:58;2.58;;;2.38;;
6259;SDS011;3163;51.516;4.000;2022-08-19T02:59:24;2.80;;;2.60;;
6259;SDS011;3163;51.516;4.000;2022-08-19T03:01:51;2.53;;;2.30;;
6259;SDS011;3163;51.516;4.000;2022-08-19T03:04:17;3.03;;;2.78;;
6259;SDS011;3163;51.516;4.000;2022-08-19T03:06:45;3.65;;;2.55;;
6259;SDS011;3163;51.516;4.000;2022-08-19T03:09:11;3.03;;;2.53;;
6259;SDS011;3163;51.516;4.000;2022-08-19T03:11:38;3.40;;;3.10;;
6259;SDS011;3163;51.516;4.000;2022-08-19T03:14:04;2.83;;;2.63;;
6259;SDS011;3163;51.516;4.000;2022-08-19T03:16:34;2.65;;;2.45;;
6259;SDS011;3163;51.516;4.000;2022-08-19T03:19:00;2.90;;;2.70;;
6259;SDS011;3163;51.516;4.000;2022-08-19T03:21:27;2.63;;;2.45;;
6259;SDS011;3163;51.516;4.000;2022-08-19T03:23:54;3.08;;;2.88;;
6259;SDS011;3163;51.516;4.000;2022-08-19T03:26:20;3.53;;;2.60;;
6259;SDS011;3163;51.516;4.000;2022-08-19T03:28:46;3.17;;;2.47;;
6259;SDS011;3163;51.516;4.000;2022-08-19T03:31:15;2.40;;;2.20;;
6259;SDS011;3163;51.516;4.000;2022-08-19T03:33:41;3.00;;;2.75;;
6259;SDS011;3163;51.516;4.000;2022-08-19T03:38:34;2.78;;;2.58;;
6259;SDS011;3163;51.516;4.000;2022-08-19T03:41:04;2.58;;;2.38;;
6259;SDS011;3163;51.516;4.000;2022-08-19T03:43:31;2.50;;;2.30;;
6259;SDS011;3163;51.516;4.000;2022-08-19T03:46:02;2.47;;;2.28;;
6259;SDS011;3163;51.516;4.000;2022-08-19T03:48:29;2.45;;;2.25;;
6259;SDS011;3163;51.516;4.000;2022-08-19T03:50:55;2.35;;;1.98;;
6259;SDS011;3163;51.516;4.000;2022-08-19T03:53:23;2.88;;;2.45;;
6259;SDS011;3163;51.516;4.000;2022-08-19T03:55:49;2.40;;;2.20;;
6259;SDS011;3163;51.516;4.000;2022-08-19T03:58:15;2.75;;;2.55;;
6259;SDS011;3163;51.516;4.000;2022-08-19T04:00:42;3.40;;;2.50;;
6259;SDS011;3163;51.516;4.000;2022-08-19T04:03:08;4.00;;;3.60;;
6259;SDS011;3163;51.516;4.000;2022-08-19T04:05:34;2.95;;;2.75;;
6259;SDS011;3163;51.516;4.000;2022-08-19T04:08:00;4.53;;;2.70;;
6259;SDS011;3163;51.516;4.000;2022-08-19T04:10:26;3.83;;;3.42;;
6259;SDS011;3163;51.516;4.000;2022-08-19T04:12:53;3.40;;;2.45;;
6259;SDS011;3163;51.516;4.000;2022-08-19T04:15:19;2.90;;;2.70;;
6259;SDS011;3163;51.516;4.000;2022-08-19T04:17:45;2.40;;;2.20;;
6259;SDS011;3163;51.516;4.000;2022-08-19T04:20:11;3.60;;;2.58;;
6259;SDS011;3163;51.516;4.000;2022-08-19T04:22:37;3.13;;;2.47;;
6259;SDS011;3163;51.516;4.000;2022-08-19T04:25:03;2.33;;;2.13;;
6259;SDS011;3163;51.516;4.000;2022-08-19T04:27:29;3.72;;;2.38;;
6259;SDS011;3163;51.516;4.000;2022-08-19T04:29:57;3.08;;;2.75;;
6259;SDS011;3163;51.516;4.000;2022-08-19T04:32:23;2.20;;;2.00;;
6259;SDS011;3163;51.516;4.000;2022-08-19T04:34:49;3.13;;;2.08;;
6259;SDS011;3163;51.516;4.000;2022-08-19T04:37:15;2.13;;;2.03;;
6259;SDS011;3163;51.516;4.000;2022-08-19T04:39:41;5.03;;;2.40;;
6259;SDS011;3163;51.516;4.000;2022-08-19T04:42:26;3.72;;;3.13;;
6259;SDS011;3163;51.516;4.000;2022-08-19T04:45:05;3.88;;;2.85;;
6259;SDS011;3163;51.516;4.000;2022-08-19T04:47:31;2.67;;;2.47;;
6259;SDS011;3163;51.516;4.000;2022-08-19T04:49:58;2.15;;;2.05;;
6259;SDS011;3163;51.516;4.000;2022-08-19T04:52:24;3.08;;;2.88;;
6259;SDS011;3163;51.516;4.000;2022-08-19T04:54:50;5.78;;;3.25;;
6259;SDS011;3163;51.516;4.000;2022-08-19T04:57:16;2.97;;;2.38;;
6259;SDS011;3163;51.516;4.000;2022-08-19T04:59:42;2.60;;;2.40;;
6259;SDS011;3163;51.516;4.000;2022-08-19T05:02:08;2.35;;;2.25;;
6259;SDS011;3163;51.516;4.000;2022-08-19T05:04:35;2.38;;;1.83;;
6259;SDS011;3163;51.516;4.000;2022-08-19T05:07:04;3.05;;;2.10;;
6259;SDS011;3163;51.516;4.000;2022-08-19T05:09:30;2.60;;;2.40;;
6259;SDS011;3163;51.516;4.000;2022-08-19T05:11:56;4.28;;;3.00;;
6259;SDS011;3163;51.516;4.000;2022-08-19T05:14:22;2.78;;;2.45;;
6259;SDS011;3163;51.516;4.000;2022-08-19T05:16:48;2.75;;;2.55;;
6259;SDS011;3163;51.516;4.000;2022-08-19T05:19:14;2.60;;;2.40;;
6259;SDS011;3163;51.516;4.000;2022-08-19T05:21:59;2.90;;;2.05;;
6259;SDS011;3163;51.516;4.000;2022-08-19T05:24:44;3.58;;;2.65;;
6259;SDS011;3163;51.516;4.000;2022-08-19T05:27:10;3.95;;;2.80;;
6259;SDS011;3163;51.516;4.000;2022-08-19T05:29:36;1.75;;;1.65;;
6259;SDS011;3163;51.516;4.000;2022-08-19T05:32:03;3.80;;;2.42;;
6259;SDS011;3163;51.516;4.000;2022-08-19T05:34:30;2.22;;;2.10;;
6259;SDS011;3163;51.516;4.000;2022-08-19T05:36:58;2.28;;;2.17;;
6259;SDS011;3163;51.516;4.000;2022-08-19T05:39:28;2.72;;;2.25;;
6259;SDS011;3163;51.516;4.000;2022-08-19T05:41:56;1.95;;;1.85;;
6259;SDS011;3163;51.516;4.000;2022-08-19T05:44:22;2.83;;;2.47;;
6259;SDS011;3163;51.516;4.000;2022-08-19T05:46:48;2.60;;;2.40;;
6259;SDS011;3163;51.516;4.000;2022-08-19T05:49:18;3.78;;;2.90;;
6259;SDS011;3163;51.516;4.000;2022-08-19T05:51:44;2.30;;;2.10;;
6259;SDS011;3163;51.516;4.000;2022-08-19T05:54:10;3.95;;;2.25;;
6259;SDS011;3163;51.516;4.000;2022-08-19T05:56:38;2.28;;;2.08;;
6259;SDS011;3163;51.516;4.000;2022-08-19T05:59:05;2.55;;;1.58;;
6259;SDS011;3163;51.516;4.000;2022-08-19T06:01:34;2.22;;;2.13;;
6259;SDS011;3163;51.516;4.000;2022-08-19T06:04:00;2.35;;;2.20;;
6259;SDS011;3163;51.516;4.000;2022-08-19T06:06:26;1.75;;;1.65;;
6259;SDS011;3163;51.516;4.000;2022-08-19T06:08:52;1.67;;;1.60;;
6259;SDS011;3163;51.516;4.000;2022-08-19T06:11:19;2.42;;;2.10;;
6259;SDS011;3163;51.516;4.000;2022-08-19T06:13:46;2.38;;;1.70;;
6259;SDS011;3163;51.516;4.000;2022-08-19T06:16:14;3.97;;;2.15;;
6259;SDS011;3163;51.516;4.000;2022-08-19T06:18:45;2.65;;;2.35;;
6259;SDS011;3163;51.516;4.000;2022-08-19T06:21:11;2.28;;;2.08;;
6259;SDS011;3163;51.516;4.000;2022-08-19T06:23:37;2.30;;;1.98;;
6259;SDS011;3163;51.516;4.000;2022-08-19T06:26:04;1.67;;;1.58;;
6259;SDS011;3163;51.516;4.000;2022-08-19T06:28:30;3.47;;;2.28;;
6259;SDS011;3163;51.516;4.000;2022-08-19T06:30:57;4.43;;;1.83;;
6259;SDS011;3163;51.516;4.000;2022-08-19T06:33:23;2.90;;;2.30;;
6259;SDS011;3163;51.516;4.000;2022-08-19T06:35:49;3.45;;;1.80;;
6259;SDS011;3163;51.516;4.000;2022-08-19T06:38:15;2.45;;;1.90;;
6259;SDS011;3163;51.516;4.000;2022-08-19T06:40:41;4.13;;;2.53;;
6259;SDS011;3163;51.516;4.000;2022-08-19T06:43:07;2.08;;;1.88;;
6259;SDS011;3163;51.516;4.000;2022-08-19T06:45:33;1.58;;;1.48;;
6259;SDS011;3163;51.516;4.000;2022-08-19T06:48:03;5.47;;;2.20;;
6259;SDS011;3163;51.516;4.000;2022-08-19T06:50:29;7.20;;;4.55;;
6259;SDS011;3163;51.516;4.000;2022-08-19T06:52:55;4.47;;;3.50;;
6259;SDS011;3163;51.516;4.000;2022-08-19T06:55:21;4.10;;;1.92;;
6259;SDS011;3163;51.516;4.000;2022-08-19T06:57:47;3.28;;;2.00;;
6259;SDS011;3163;51.516;4.000;2022-08-19T07:00:13;2.38;;;2.17;;
6259;SDS011;3163;51.516;4.000;2022-08-19T07:02:42;10.82;;;8.15;;
6259;SDS011;3163;51.516;4.000;2022-08-19T07:05:09;12.18;;;7.70;;
6259;SDS011;3163;51.516;4.000;2022-08-19T07:07:35;9.52;;;6.03;;
6259;SDS011;3163;51.516;4.000;2022-08-19T07:10:00;10.90;;;5.93;;
6259;SDS011;3163;51.516;4.000;2022-08-19T07:12:28;11.75;;;7.70;;
6259;SDS011;3163;51.516;4.000;2022-08-19T07:14:56;9.15;;;6.55;;
6259;SDS011;3163;51.516;4.000;2022-08-19T07:17:22;10.13;;;4.97;;
6259;SDS011;3163;51.516;4.000;2022-08-19T07:19:48;7.30;;;4.97;;
6259;SDS011;3163;51.516;4.000;2022-08-19T07:22:15;8.65;;;4.88;;
6259;SDS011;3163;51.516;4.000;2022-08-19T07:24:42;5.93;;;4.32;;
6259;SDS011;3163;51.516;4.000;2022-08-19T07:27:08;8.93;;;6.05;;
6259;SDS011;3163;51.516;4.000;2022-08-19T07:29:35;5.65;;;4.28;;
6259;SDS011;3163;51.516;4.000;2022-08-19T07:32:01;5.82;;;3.90;;
6259;SDS011;3163;51.516;4.000;2022-08-19T07:34:29;8.65;;;5.45;;
6259;SDS011;3163;51.516;4.000;2022-08-19T07:36:55;4.65;;;4.25;;
6259;SDS011;3163;51.516;4.000;2022-08-19T07:39:28;4.70;;;4.05;;
6259;SDS011;3163;51.516;4.000;2022-08-19T07:41:55;7.07;;;4.78;;
6259;SDS011;3163;51.516;4.000;2022-08-19T07:44:21;5.18;;;4.32;;
6259;SDS011;3163;51.516;4.000;2022-08-19T07:46:48;7.57;;;4.82;;
6259;SDS011;3163;51.516;4.000;2022-08-19T07:49:15;4.63;;;4.20;;
6259;SDS011;3163;51.516;4.000;2022-08-19T07:51:49;5.35;;;4.38;;
6259;SDS011;3163;51.516;4.000;2022-08-19T07:54:15;5.15;;;4.40;;
6259;SDS011;3163;51.516;4.000;2022-08-19T07:56:42;4.32;;;3.90;;
6259;SDS011;3163;51.516;4.000;2022-08-19T07:59:08;6.72;;;4.72;;
6259;SDS011;3163;51.516;4.000;2022-08-19T08:01:34;4.75;;;4.15;;
6259;SDS011;3163;51.516;4.000;2022-08-19T08:04:00;6.03;;;4.32;;
6259;SDS011;3163;51.516;4.000;2022-08-19T08:06:45;4.38;;;3.97;;
6259;SDS011;3163;51.516;4.000;2022-08-19T08:09:31;13.80;;;5.63;;
6259;SDS011;3163;51.516;4.000;2022-08-19T08:11:59;5.57;;;4.45;;
6259;SDS011;3163;51.516;4.000;2022-08-19T08:14:30;4.80;;;4.05;;
6259;SDS011;3163;51.516;4.000;2022-08-19T08:16:56;4.50;;;3.95;;
6259;SDS011;3163;51.516;4.000;2022-08-19T08:19:23;8.38;;;4.80;;
6259;SDS011;3163;51.516;4.000;2022-08-19T08:21:50;4.97;;;3.95;;
6259;SDS011;3163;51.516;4.000;2022-08-19T08:24:17;4.13;;;3.67;;
6259;SDS011;3163;51.516;4.000;2022-08-19T08:26:43;4.80;;;4.40;;
6259;SDS011;3163;51.516;4.000;2022-08-19T08:29:10;6.82;;;4.28;;
6259;SDS011;3163;51.516;4.000;2022-08-19T08:31:38;6.47;;;4.20;;
6259;SDS011;3163;51.516;4.000;2022-08-19T08:34:04;4.38;;;3.97;;
6259;SDS011;3163;51.516;4.000;2022-08-19T08:36:30;4.07;;;3.67;;
6259;SDS011;3163;51.516;4.000;2022-08-19T08:38:58;5.10;;;4.57;;
6259;SDS011;3163;51.516;4.000;2022-08-19T08:43:54;3.83;;;3.47;;
6259;SDS011;3163;51.516;4.000;2022-08-19T08:49:24;4.10;;;3.70;;
6259;SDS011;3163;51.516;4.000;2022-08-19T08:54:40;3.53;;;3.22;;
6259;SDS011;3163;51.516;4.000;2022-08-19T08:57:08;3.58;;;3.00;;
6259;SDS011;3163;51.516;4.000;2022-08-19T08:59:36;4.43;;;4.03;;
6259;SDS011;3163;51.516;4.000;2022-08-19T09:02:03;5.47;;;3.65;;
6259;SDS011;3163;51.516;4.000;2022-08-19T09:04:29;4.72;;;4.07;;
6259;SDS011;3163;51.516;4.000;2022-08-19T09:11:55;3.72;;;3.22;;
6259;SDS011;3163;51.516;4.000;2022-08-19T09:16:57;4.65;;;4.25;;
6259;SDS011;3163;51.516;4.000;2022-08-19T09:19:24;13.60;;;9.18;;
6259;SDS011;3163;51.516;4.000;2022-08-19T09:21:50;15.38;;;8.13;;
6259;SDS011;3163;51.516;4.000;2022-08-19T09:24:16;11.77;;;7.05;;
6259;SDS011;3163;51.516;4.000;2022-08-19T09:26:42;7.75;;;5.90;;
6259;SDS011;3163;51.516;4.000;2022-08-19T09:29:09;9.40;;;7.15;;
6259;SDS011;3163;51.516;4.000;2022-08-19T09:31:35;12.30;;;6.63;;
6259;SDS011;3163;51.516;4.000;2022-08-19T09:34:01;10.00;;;6.03;;
6259;SDS011;3163;51.516;4.000;2022-08-19T09:36:29;10.02;;;6.57;;
6259;SDS011;3163;51.516;4.000;2022-08-19T09:38:57;12.70;;;5.38;;
6259;SDS011;3163;51.516;4.000;2022-08-19T09:41:24;8.60;;;4.95;;
6259;SDS011;3163;51.516;4.000;2022-08-19T09:43:51;4.90;;;4.38;;
6259;SDS011;3163;51.516;4.000;2022-08-19T09:46:18;6.68;;;4.90;;
6259;SDS011;3163;51.516;4.000;2022-08-19T09:48:46;7.45;;;6.25;;
6259;SDS011;3163;51.516;4.000;2022-08-19T09:51:14;10.52;;;6.78;;
6259;SDS011;3163;51.516;4.000;2022-08-19T09:53:40;7.50;;;6.32;;
6259;SDS011;3163;51.516;4.000;2022-08-19T09:56:07;8.50;;;6.72;;
6259;SDS011;3163;51.516;4.000;2022-08-19T09:58:33;6.82;;;6.13;;
6259;SDS011;3163;51.516;4.000;2022-08-19T10:01:00;5.78;;;5.18;;
6259;SDS011;3163;51.516;4.000;2022-08-19T10:03:27;6.32;;;5.10;;
6259;SDS011;3163;51.516;4.000;2022-08-19T10:05:53;4.95;;;4.50;;
6259;SDS011;3163;51.516;4.000;2022-08-19T10:08:21;5.68;;;5.15;;
6259;SDS011;3163;51.516;4.000;2022-08-19T10:10:48;5.30;;;4.65;;
6259;SDS011;3163;51.516;4.000;2022-08-19T10:13:17;4.95;;;3.67;;
6259;SDS011;3163;51.516;4.000;2022-08-19T10:15:46;5.00;;;4.50;;
6259;SDS011;3163;51.516;4.000;2022-08-19T10:18:15;5.72;;;4.90;;
6259;SDS011;3163;51.516;4.000;2022-08-19T10:20:45;4.63;;;4.22;;
6259;SDS011;3163;51.516;4.000;2022-08-19T10:23:11;4.70;;;4.30;;
6259;SDS011;3163;51.516;4.000;2022-08-19T10:25:37;5.68;;;4.07;;
6259;SDS011;3163;51.516;4.000;2022-08-19T10:28:04;5.75;;;4.65;;
6259;SDS011;3163;51.516;4.000;2022-08-19T10:30:34;4.45;;;3.95;;
6259;SDS011;3163;51.516;4.000;2022-08-19T10:33:01;4.82;;;4.43;;
6259;SDS011;3163;51.516;4.000;2022-08-19T10:35:27;4.30;;;3.90;;
6259;SDS011;3163;51.516;4.000;2022-08-19T10:37:54;4.32;;;3.92;;
6259;SDS011;3163;51.516;4.000;2022-08-19T10:40:24;4.40;;;3.95;;
6259;SDS011;3163;51.516;4.000;2022-08-19T10:42:50;6.65;;;4.10;;
6259;SDS011;3163;51.516;4.000;2022-08-19T10:45:16;3.90;;;3.60;;
6259;SDS011;3163;51.516;4.000;2022-08-19T10:47:42;2.83;;;2.58;;
6259;SDS011;3163;51.516;4.000;2022-08-19T10:50:08;3.72;;;3.42;;
6259;SDS011;3163;51.516;4.000;2022-08-19T10:52:53;4.03;;;2.70;;
6259;SDS011;3163;51.516;4.000;2022-08-19T10:55:20;3.40;;;3.10;;
6259;SDS011;3163;51.516;4.000;2022-08-19T10:58:12;3.42;;;3.13;;
6259;SDS011;3163;51.516;4.000;2022-08-19T11:00:39;3.28;;;2.88;;
6259;SDS011;3163;51.516;4.000;2022-08-19T11:03:05;3.00;;;2.67;;
6259;SDS011;3163;51.516;4.000;2022-08-19T11:05:31;2.78;;;2.60;;
6259;SDS011;3163;51.516;4.000;2022-08-19T11:07:57;3.38;;;2.92;;
6259;SDS011;3163;51.516;4.000;2022-08-19T11:10:23;3.13;;;2.40;;
6259;SDS011;3163;51.516;4.000;2022-08-19T11:12:49;3.25;;;2.80;;
6259;SDS011;3163;51.516;4.000;2022-08-19T11:15:19;2.80;;;2.60;;
6259;SDS011;3163;51.516;4.000;2022-08-19T11:17:46;2.70;;;2.35;;
6259;SDS011;3163;51.516;4.000;2022-08-19T11:20:12;3.25;;;3.03;;
6259;SDS011;3163;51.516;4.000;2022-08-19T11:22:39;2.90;;;2.70;;
6259;SDS011;3163;51.516;4.000;2022-08-19T11:25:05;2.83;;;2.63;;
6259;SDS011;3163;51.516;4.000;2022-08-19T11:27:31;3.13;;;2.92;;
6259;SDS011;3163;51.516;4.000;2022-08-19T11:29:58;3.20;;;2.90;;
6259;SDS011;3163;51.516;4.000;2022-08-19T11:32:25;2.80;;;2.20;;
6259;SDS011;3163;51.516;4.000;2022-08-19T11:34:52;4.22;;;3.83;;
6259;SDS011;3163;51.516;4.000;2022-08-19T11:37:18;2.67;;;2.15;;
6259;SDS011;3163;51.516;4.000;2022-08-19T11:39:44;2.58;;;2.38;;
6259;SDS011;3163;51.516;4.000;2022-08-19T11:42:10;2.13;;;2.03;;
6259;SDS011;3163;51.516;4.000;2022-08-19T11:44:55;3.10;;;2.80;;
6259;SDS011;3163;51.516;4.000;2022-08-19T11:47:21;2.30;;;2.13;;
6259;SDS011;3163;51.516;4.000;2022-08-19T11:49:47;2.90;;;2.70;;
6259;SDS011;3163;51.516;4.000;2022-08-19T11:52:13;2.67;;;2.47;;
6259;SDS011;3163;51.516;4.000;2022-08-19T11:54:39;2.78;;;2.60;;
6259;SDS011;3163;51.516;4.000;2022-08-19T11:57:05;3.03;;;2.42;;
6259;SDS011;3163;51.516;4.000;2022-08-19T11:59:31;3.28;;;2.60;;
6259;SDS011;3163;51.516;4.000;2022-08-19T12:01:57;2.83;;;2.63;;
6259;SDS011;3163;51.516;4.000;2022-08-19T12:04:24;2.67;;;2.50;;
6259;SDS011;3163;51.516;4.000;2022-08-19T12:06:50;2.38;;;2.22;;
6259;SDS011;3163;51.516;4.000;2022-08-19T12:09:16;3.28;;;2.75;;
6259;SDS011;3163;51.516;4.000;2022-08-19T12:11:42;2.60;;;2.40;;
6259;SDS011;3163;51.516;4.000;2022-08-19T12:14:10;2.67;;;2.47;;
6259;SDS011;3163;51.516;4.000;2022-08-19T12:16:36;2.08;;;1.98;;
6259;SDS011;3163;51.516;4.000;2022-08-19T12:19:03;2.53;;;2.33;;
6259;SDS011;3163;51.516;4.000;2022-08-19T12:21:30;2.13;;;2.03;;
6259;SDS011;3163;51.516;4.000;2022-08-19T12:23:57;3.00;;;2.17;;
6259;SDS011;3163;51.516;4.000;2022-08-19T12:26:24;1.88;;;1.80;;
6259;SDS011;3163;51.516;4.000;2022-08-19T12:28:53;2.40;;;2.30;;
6259;SDS011;3163;51.516;4.000;2022-08-19T12:31:20;1.88;;;1.77;;
6259;SDS011;3163;51.516;4.000;2022-08-19T12:33:46;1.70;;;1.60;;
6259;SDS011;3163;51.516;4.000;2022-08-19T12:36:15;2.20;;;2.03;;
6259;SDS011;3163;51.516;4.000;2022-08-19T12:38:42;2.42;;;2.25;;
6259;SDS011;3163;51.516;4.000;2022-08-19T12:41:10;2.47;;;1.85;;
6259;SDS011;3163;51.516;4.000;2022-08-19T12:43:37;2.67;;;2.47;;
6259;SDS011;3163;51.516;4.000;2022-08-19T12:46:03;2.35;;;2.20;;
6259;SDS011;3163;51.516;4.000;2022-08-19T12:48:30;2.10;;;2.00;;
6259;SDS011;3163;51.516;4.000;2022-08-19T12:50:56;2.03;;;1.92;;
6259;SDS011;3163;51.516;4.000;2022-08-19T12:53:22;2.28;;;2.10;;
6259;SDS011;3163;51.516;4.000;2022-08-19T12:55:54;2.17;;;2.08;;
6259;SDS011;3163;51.516;4.000;2022-08-19T12:58:21;2.17;;;2.08;;
6259;SDS011;3163;51.516;4.000;2022-08-19T13:00:47;2.28;;;1.70;;
6259;SDS011;3163;51.516;4.000;2022-08-19T13:03:13;2.28;;;2.17;;
6259;SDS011;3163;51.516;4.000;2022-08-19T13:05:40;3.28;;;2.20;;
6259;SDS011;3163;51.516;4.000;2022-08-19T13:08:06;2.30;;;2.17;;
6259;SDS011;3163;51.516;4.000;2022-08-19T13:10:33;2.58;;;2.28;;
6259;SDS011;3163;51.516;4.000;2022-08-19T13:13:00;2.78;;;2.58;;
6259;SDS011;3163;51.516;4.000;2022-08-19T13:15:27;3.40;;;3.10;;
6259;SDS011;3163;51.516;4.000;2022-08-19T13:17:53;2.75;;;2.10;;
6259;SDS011;3163;51.516;4.000;2022-08-19T13:20:20;2.42;;;2.20;;
6259;SDS011;3163;51.516;4.000;2022-08-19T13:22:47;3.78;;;2.80;;
6259;SDS011;3163;51.516;4.000;2022-08-19T13:25:14;2.78;;;2.58;;
6259;SDS011;3163;51.516;4.000;2022-08-19T13:27:42;3.15;;;2.90;;
6259;SDS011;3163;51.516;4.000;2022-08-19T13:30:09;2.30;;;2.20;;
6259;SDS011;3163;51.516;4.000;2022-08-19T13:32:54;2.65;;;2.53;;
6259;SDS011;3163;51.516;4.000;2022-08-19T13:35:35;2.70;;;2.47;;
6259;SDS011;3163;51.516;4.000;2022-08-19T13:38:01;2.90;;;2.70;;
6259;SDS011;3163;51.516;4.000;2022-08-19T13:40:29;3.20;;;2.90;;
6259;SDS011;3163;51.516;4.000;2022-08-19T13:42:58;2.63;;;2.53;;
6259;SDS011;3163;51.516;4.000;2022-08-19T13:45:24;3.10;;;2.90;;
6259;SDS011;3163;51.516;4.000;2022-08-19T13:47:51;3.50;;;3.20;;
6259;SDS011;3163;51.516;4.000;2022-08-19T13:50:20;3.53;;;3.00;;
6259;SDS011;3163;51.516;4.000;2022-08-19T13:52:46;4.40;;;3.75;;
6259;SDS011;3163;51.516;4.000;2022-08-19T13:55:12;3.33;;;2.92;;
6259;SDS011;3163;51.516;4.000;2022-08-19T13:57:39;4.35;;;3.85;;
6259;SDS011;3163;51.516;4.000;2022-08-19T14:00:06;4.25;;;3.90;;
6259;SDS011;3163;51.516;4.000;2022-08-19T14:02:35;3.58;;;3.30;;
6259;SDS011;3163;51.516;4.000;2022-08-19T14:05:02;3.25;;;2.95;;
6259;SDS011;3163;51.516;4.000;2022-08-19T14:07:28;3.42;;;3.17;;
6259;SDS011;3163;51.516;4.000;2022-08-19T14:09:54;3.72;;;3.33;;
6259;SDS011;3163;51.516;4.000;2022-08-19T14:12:20;3.08;;;2.88;;
6259;SDS011;3163;51.516;4.000;2022-08-19T14:14:46;3.78;;;3.40;;
6259;SDS011;3163;51.516;4.000;2022-08-19T14:17:12;4.85;;;3.25;;
6259;SDS011;3163;51.516;4.000;2022-08-19T14:19:38;3.42;;;2.80;;
6259;SDS011;3163;51.516;4.000;2022-08-19T14:22:04;2.88;;;2.67;;
6259;SDS011;3163;51.516;4.000;2022-08-19T14:24:30;2.50;;;2.30;;
6259;SDS011;3163;51.516;4.000;2022-08-19T14:26:59;2.50;;;2.30;;
6259;SDS011;3163;51.516;4.000;2022-08-19T14:29:25;2.58;;;2.40;;
6259;SDS011;3163;51.516;4.000;2022-08-19T14:31:53;3.53;;;2.60;;
6259;SDS011;3163;51.516;4.000;2022-08-19T14:34:21;2.70;;;2.50;;
6259;SDS011;3163;51.516;4.000;2022-08-19T14:36:47;2.55;;;2.35;;
6259;SDS011;3163;51.516;4.000;2022-08-19T14:39:13;2.25;;;2.15;;
6259;SDS011;3163;51.516;4.000;2022-08-19T14:41:40;2.72;;;2.53;;
6259;SDS011;3163;51.516;4.000;2022-08-19T14:44:12;2.17;;;2.08;;
6259;SDS011;3163;51.516;4.000;2022-08-19T14:46:39;2.60;;;2.15;;
6259;SDS011;3163;51.516;4.000;2022-08-19T14:49:05;2.30;;;2.10;;
6259;SDS011;3163;51.516;4.000;2022-08-19T14:51:31;3.97;;;2.25;;
6259;SDS011;3163;51.516;4.000;2022-08-19T14:53:57;2.30;;;2.10;;
6259;SDS011;3163;51.516;4.000;2022-08-19T14:56:24;2.55;;;1.70;;
6259;SDS011;3163;51.516;4.000;2022-08-19T14:58:51;1.10;;;0.90;;
6259;SDS011;3163;51.516;4.000;2022-08-19T15:01:17;1.40;;;0.80;;
6259;SDS011;3163;51.516;4.000;2022-08-19T15:03:45;0.77;;;0.77;;
6259;SDS011;3163;51.516;4.000;2022-08-19T15:06:11;0.60;;;0.57;;
6259;SDS011;3163;51.516;4.000;2022-08-19T15:08:38;2.13;;;0.63;;
6259;SDS011;3163;51.516;4.000;2022-08-19T15:11:09;0.50;;;0.50;;
6259;SDS011;3163;51.516;4.000;2022-08-19T15:13:35;1.00;;;0.47;;
6259;SDS011;3163;51.516;4.000;2022-08-19T15:16:02;0.57;;;0.50;;
6259;SDS011;3163;51.516;4.000;2022-08-19T15:18:29;2.00;;;0.88;;
6259;SDS011;3163;51.516;4.000;2022-08-19T15:20:55;1.33;;;0.77;;
6259;SDS011;3163;51.516;4.000;2022-08-19T15:23:21;0.80;;;0.80;;
6259;SDS011;3163;51.516;4.000;2022-08-19T15:25:48;0.65;;;0.60;;
6259;SDS011;3163;51.516;4.000;2022-08-19T15:28:18;1.85;;;0.75;;
6259;SDS011;3163;51.516;4.000;2022-08-19T15:30:44;1.23;;;0.70;;
6259;SDS011;3163;51.516;4.000;2022-08-19T15:33:10;1.77;;;0.70;;